Time;durP1;ratioP1;P1;durP2;ratioP2;P2;SDS_P1;SDS_P2;PMS_P1;PMS_P2;Temp;Humidity;BMP_temperature;BMP_pressure;BME280_temperature;BME280_humidity;BME280_pressure;Samples;Min_cycle;Max_cycle;Signal;HPM_P1;HPM_P2
2022/06/21 00:00:07;;;;;;;4.93;3.40;;;11.80;99.90;;;;;;4995739;28;20203;-61
2022/06/21 00:02:35;;;;;;;4.77;3.30;;;11.80;99.90;;;;;;4995153;28;20208;-61
2022/06/21 00:05:02;;;;;;;5.37;3.80;;;11.80;99.90;;;;;;4995600;28;20434;-61
2022/06/21 00:07:29;;;;;;;5.67;4.30;;;11.70;99.90;;;;;;4995335;28;20207;-61
2022/06/21 00:09:57;;;;;;;7.40;4.70;;;11.70;99.90;;;;;;4995205;28;20703;-61
2022/06/21 00:12:24;;;;;;;6.87;4.10;;;11.70;99.90;;;;;;4995400;28;20231;-60
2022/06/21 00:14:52;;;;;;;6.17;4.13;;;11.60;99.90;;;;;;4995086;28;20223;-61
2022/06/21 00:17:21;;;;;;;6.83;3.80;;;11.60;99.90;;;;;;4994855;28;20793;-61
2022/06/21 00:19:50;;;;;;;6.23;3.47;;;11.60;99.90;;;;;;4995298;28;20212;-61
2022/06/21 00:22:19;;;;;;;4.73;3.87;;;11.60;99.90;;;;;;4995399;28;20246;-61
2022/06/21 00:24:46;;;;;;;5.63;3.87;;;11.50;99.90;;;;;;4995051;28;20347;-61
2022/06/21 00:27:15;;;;;;;4.70;4.00;;;11.50;99.90;;;;;;4994613;28;20278;-61
2022/06/21 00:29:41;;;;;;;6.70;3.80;;;11.50;99.90;;;;;;4994658;28;20219;-61
2022/06/21 00:32:13;;;;;;;10.00;3.90;;;11.50;99.90;;;;;;4994925;28;20632;-61
2022/06/21 00:34:40;;;;;;;5.57;4.33;;;11.50;99.90;;;;;;4995292;28;20207;-61
2022/06/21 00:37:14;;;;;;;6.43;3.70;;;11.40;99.90;;;;;;4994474;28;20290;-61
2022/06/21 00:39:41;;;;;;;4.37;3.97;;;11.40;99.90;;;;;;4995169;28;20613;-61
2022/06/21 00:42:20;;;;;;;8.97;4.40;;;11.30;99.90;;;;;;4994467;28;20265;-61
2022/06/21 00:44:53;;;;;;;9.07;4.33;;;11.20;99.90;;;;;;4994985;28;20269;-61
2022/06/21 00:47:25;;;;;;;7.87;4.77;;;11.20;99.90;;;;;;4994212;28;20292;-61
2022/06/21 00:49:55;;;;;;;7.10;4.27;;;11.20;99.90;;;;;;4994659;28;20714;-61
2022/06/21 00:52:28;;;;;;;5.87;3.70;;;11.10;99.90;;;;;;4994480;28;20262;-61
2022/06/21 00:54:58;;;;;;;6.67;4.47;;;11.10;99.90;;;;;;4994879;28;20627;-61
2022/06/21 00:57:34;;;;;;;6.97;4.00;;;11.10;99.90;;;;;;4994114;28;20208;-61
2022/06/21 01:00:25;;;;;;;6.87;4.43;;;11.10;99.90;;;;;;4994571;28;20207;-61
2022/06/21 01:02:53;;;;;;;5.20;4.43;;;11.00;99.90;;;;;;4993872;28;20282;-61
2022/06/21 01:05:21;;;;;;;6.97;3.93;;;11.00;99.90;;;;;;4994557;28;20231;-61
2022/06/21 01:07:49;;;;;;;6.83;4.10;;;11.00;99.90;;;;;;4993886;28;20698;-61
2022/06/21 01:10:18;;;;;;;8.77;4.73;;;10.90;99.90;;;;;;4994384;28;20224;-61
2022/06/21 01:12:51;;;;;;;6.03;4.63;;;10.90;99.90;;;;;;4994194;28;20629;-61
2022/06/21 01:15:22;;;;;;;6.17;4.37;;;10.90;99.90;;;;;;4994014;28;20240;-61
2022/06/21 01:17:51;;;;;;;6.63;4.37;;;10.80;99.90;;;;;;4994126;28;20644;-61
2022/06/21 01:20:23;;;;;;;6.80;4.40;;;10.70;99.90;;;;;;4994156;28;20617;-63
2022/06/21 01:23:01;;;;;;;5.97;4.57;;;10.70;99.90;;;;;;4994145;28;20203;-61
2022/06/21 01:25:38;;;;;;;5.90;4.23;;;10.70;99.90;;;;;;4993856;28;20231;-61
2022/06/21 01:28:08;;;;;;;8.97;4.13;;;10.70;99.90;;;;;;4993549;28;20273;-61
2022/06/21 01:30:35;;;;;;;5.93;4.37;;;10.70;99.90;;;;;;4993878;28;20234;-60
2022/06/21 01:33:02;;;;;;;4.47;3.87;;;10.70;99.90;;;;;;4993904;28;20294;-61
2022/06/21 01:35:37;;;;;;;8.57;4.43;;;10.70;99.90;;;;;;4993730;28;20223;-61
2022/06/21 01:38:05;;;;;;;8.97;5.00;;;10.60;99.90;;;;;;4993779;28;20206;-61
2022/06/21 01:40:36;;;;;;;7.23;4.57;;;10.60;99.90;;;;;;4993446;28;20210;-61
2022/06/21 01:43:08;;;;;;;9.00;4.63;;;10.50;99.90;;;;;;4993431;28;20228;-60
2022/06/21 01:45:38;;;;;;;7.30;4.67;;;10.50;99.90;;;;;;4994150;28;20231;-61
2022/06/21 01:48:11;;;;;;;10.60;4.30;;;10.50;99.90;;;;;;4993820;28;20685;-60
2022/06/21 01:50:40;;;;;;;8.87;4.50;;;10.50;99.90;;;;;;4993448;28;20233;-60
2022/06/21 01:53:09;;;;;;;8.50;5.13;;;10.50;99.90;;;;;;4993423;28;20203;-61
2022/06/21 01:55:41;;;;;;;7.37;5.33;;;10.40;99.90;;;;;;4993515;28;20227;-60
2022/06/21 01:58:12;;;;;;;6.40;4.63;;;10.50;99.90;;;;;;4993064;28;20241;-60
2022/06/21 02:00:45;;;;;;;8.57;5.00;;;10.40;99.90;;;;;;4993437;28;20212;-60
2022/06/21 02:03:16;;;;;;;9.67;5.07;;;10.30;99.90;;;;;;4993140;28;20621;-60
2022/06/21 02:05:50;;;;;;;7.30;4.97;;;10.20;99.90;;;;;;4993578;28;20325;-60
2022/06/21 02:08:22;;;;;;;8.80;5.20;;;10.20;99.90;;;;;;4993190;28;20696;-61
2022/06/21 02:10:52;;;;;;;10.83;5.07;;;10.20;99.90;;;;;;4993247;28;20242;-61
2022/06/21 02:13:25;;;;;;;7.73;4.63;;;10.20;99.90;;;;;;4993040;28;20210;-61
2022/06/21 02:15:56;;;;;;;8.87;5.23;;;10.20;99.90;;;;;;4991931;28;20237;-60
2022/06/21 02:18:24;;;;;;;9.83;5.47;;;10.10;99.90;;;;;;4993143;28;20211;-60
2022/06/21 02:20:56;;;;;;;8.37;5.60;;;10.10;99.90;;;;;;4993066;28;20740;-61
2022/06/21 02:23:24;;;;;;;8.43;5.50;;;10.10;99.90;;;;;;4993121;28;20210;-60
2022/06/21 02:25:52;;;;;;;11.70;6.47;;;10.10;99.90;;;;;;4992915;28;20729;-61
2022/06/21 02:28:22;;;;;;;7.87;5.00;;;10.10;99.90;;;;;;4992466;28;20206;-61
2022/06/21 02:30:51;;;;;;;8.33;4.83;;;10.10;99.90;;;;;;4992805;28;20223;-61
2022/06/21 02:33:21;;;;;;;10.23;5.33;;;10.10;99.90;;;;;;4993135;28;20264;-61
2022/06/21 02:35:53;;;;;;;8.53;4.90;;;10.10;99.90;;;;;;4992796;28;20641;-61
2022/06/21 02:38:24;;;;;;;7.20;4.73;;;10.10;99.90;;;;;;4993022;28;20583;-61
2022/06/21 02:40:56;;;;;;;12.47;5.07;;;10.10;99.90;;;;;;4992510;28;20588;-61
2022/06/21 02:43:28;;;;;;;7.23;5.00;;;10.10;99.90;;;;;;4992695;28;20262;-61
2022/06/21 02:46:00;;;;;;;6.97;4.97;;;10.00;99.90;;;;;;4992275;28;20292;-61
2022/06/21 02:48:30;;;;;;;8.83;4.80;;;10.00;99.90;;;;;;4992643;28;20674;-60
2022/06/21 02:51:01;;;;;;;8.57;4.77;;;10.00;99.90;;;;;;4992169;28;20271;-61
2022/06/21 02:53:31;;;;;;;8.97;5.33;;;10.00;99.90;;;;;;4992512;28;20211;-60
2022/06/21 02:56:03;;;;;;;7.90;4.60;;;10.10;99.90;;;;;;4992085;28;20233;-61
2022/06/21 02:58:35;;;;;;;8.50;5.10;;;10.00;99.90;;;;;;4992713;28;20261;-61
2022/06/21 03:01:05;;;;;;;6.17;4.17;;;10.00;99.90;;;;;;4992246;28;20258;-60
2022/06/21 03:03:34;;;;;;;10.70;4.97;;;10.00;99.90;;;;;;4992437;28;20256;-61
2022/06/21 03:06:04;;;;;;;9.70;5.17;;;10.00;99.90;;;;;;4991711;28;20299;-61
2022/06/21 03:08:33;;;;;;;7.27;4.57;;;10.00;99.90;;;;;;4992677;28;20563;-61
2022/06/21 03:11:01;;;;;;;7.17;4.83;;;10.00;99.90;;;;;;4992718;28;20239;-60
2022/06/21 03:13:32;;;;;;;6.57;4.30;;;10.00;99.90;;;;;;4992260;28;20265;-61
2022/06/21 03:16:02;;;;;;;7.57;4.93;;;9.90;99.90;;;;;;4991973;28;20236;-61
2022/06/21 03:18:34;;;;;;;7.23;4.67;;;9.90;99.90;;;;;;4992067;28;20685;-61
2022/06/21 03:21:04;;;;;;;6.40;4.93;;;9.80;99.90;;;;;;4992564;28;20201;-61
2022/06/21 03:23:31;;;;;;;10.37;5.33;;;9.80;99.90;;;;;;4992301;28;20210;-61
2022/06/21 03:26:00;;;;;;;13.97;6.00;;;9.70;99.90;;;;;;4991916;28;20283;-61
2022/06/21 03:28:33;;;;;;;11.13;5.37;;;9.70;99.90;;;;;;4992074;28;20263;-61
2022/06/21 03:31:12;;;;;;;10.43;5.33;;;9.70;99.90;;;;;;4992153;28;20234;-61
2022/06/21 03:33:42;;;;;;;10.50;5.77;;;9.70;99.90;;;;;;4992048;28;20298;-61
2022/06/21 03:36:14;;;;;;;11.37;5.77;;;9.70;99.90;;;;;;4991938;28;20236;-61
2022/06/21 03:38:46;;;;;;;11.13;5.77;;;9.70;99.90;;;;;;4991882;28;20208;-61
2022/06/21 03:44:20;;;;;;;8.70;5.57;;;9.70;99.90;;;;;;4967821;28;20315;-61
2022/06/21 03:46:51;;;;;;;8.30;5.07;;;9.70;99.90;;;;;;4991931;28;20255;-61
2022/06/21 03:49:25;;;;;;;9.47;5.60;;;9.70;99.90;;;;;;4992136;28;20209;-62
2022/06/21 03:51:55;;;;;;;11.70;6.10;;;9.60;99.90;;;;;;4991865;28;20231;-62
2022/06/21 03:54:27;;;;;;;12.10;6.10;;;9.70;99.90;;;;;;4992237;28;20567;-62
2022/06/21 03:56:59;;;;;;;9.43;6.43;;;9.70;99.90;;;;;;4991685;28;20230;-62
2022/06/21 03:59:32;;;;;;;10.07;6.70;;;9.70;99.90;;;;;;4991859;28;20244;-62
2022/06/21 04:02:03;;;;;;;8.93;6.30;;;9.70;99.90;;;;;;4991785;28;20254;-61
2022/06/21 04:04:33;;;;;;;11.03;7.67;;;9.80;99.90;;;;;;4992272;28;20295;-62
2022/06/21 04:07:06;;;;;;;12.63;7.67;;;9.80;99.90;;;;;;4994361;28;20231;-62
2022/06/21 04:09:42;;;;;;;10.37;6.37;;;9.90;99.90;;;;;;4995656;28;20210;-62
2022/06/21 04:12:17;;;;;;;15.13;7.83;;;9.90;99.90;;;;;;4995330;28;20671;-62
2022/06/21 04:14:51;;;;;;;13.37;7.50;;;10.00;99.90;;;;;;4995256;28;20221;-62
2022/06/21 04:17:25;;;;;;;16.23;7.47;;;10.00;99.90;;;;;;4995167;28;20232;-62
2022/06/21 04:19:55;;;;;;;11.73;6.73;;;10.10;99.90;;;;;;4995473;28;20680;-61
2022/06/21 04:22:30;;;;;;;10.80;6.90;;;10.10;99.90;;;;;;4995301;28;20208;-62
2022/06/21 04:25:03;;;;;;;10.17;6.53;;;10.20;99.90;;;;;;4994953;28;20232;-62
2022/06/21 04:27:34;;;;;;;8.47;6.17;;;10.20;99.90;;;;;;4994805;28;20221;-62
2022/06/21 04:30:06;;;;;;;14.13;6.23;;;10.30;99.90;;;;;;4995111;28;20215;-61
2022/06/21 04:32:38;;;;;;;10.37;6.20;;;10.40;99.90;;;;;;4995230;28;20626;-62
2022/06/21 04:35:10;;;;;;;9.37;6.10;;;10.50;99.90;;;;;;4994910;28;20284;-62
2022/06/21 04:37:44;;;;;;;8.97;6.00;;;10.60;99.90;;;;;;4993307;28;20678;-62
2022/06/21 04:40:17;;;;;;;9.40;5.77;;;10.60;99.90;;;;;;4993691;28;20235;-62
2022/06/21 04:42:48;;;;;;;8.17;5.63;;;10.70;99.90;;;;;;4994448;28;20292;-62
2022/06/21 04:45:21;;;;;;;11.47;5.90;;;10.70;99.90;;;;;;4994600;28;20214;-63
2022/06/21 04:48:01;;;;;;;7.73;5.87;;;10.80;99.90;;;;;;4994497;28;20254;-62
2022/06/21 04:50:32;;;;;;;9.30;6.17;;;10.80;99.90;;;;;;4994469;28;20211;-63
2022/06/21 04:53:03;;;;;;;10.43;6.17;;;10.90;99.90;;;;;;4994745;28;20290;-62
2022/06/21 04:55:39;;;;;;;10.37;5.87;;;11.00;99.90;;;;;;4994355;28;20285;-61
2022/06/21 04:58:06;;;;;;;13.87;6.17;;;11.10;99.90;;;;;;4994210;28;20211;-62
2022/06/21 05:00:34;;;;;;;8.80;5.87;;;11.10;99.90;;;;;;4994454;28;20261;-62
2022/06/21 05:03:06;;;;;;;9.73;5.10;;;11.30;99.90;;;;;;4994082;28;20203;-62
2022/06/21 05:05:35;;;;;;;12.03;5.27;;;11.30;99.90;;;;;;4994546;28;20282;-63
2022/06/21 05:08:06;;;;;;;9.20;5.20;;;11.40;99.90;;;;;;4993921;28;20206;-61
2022/06/21 05:10:36;;;;;;;5.87;4.90;;;11.50;99.90;;;;;;4994395;28;20207;-62
2022/06/21 05:13:06;;;;;;;5.23;4.50;;;11.50;99.90;;;;;;4993764;28;20640;-62
2022/06/21 05:15:37;;;;;;;6.57;4.63;;;11.60;99.90;;;;;;4994034;28;20592;-62
2022/06/21 05:18:08;;;;;;;9.40;4.13;;;11.70;99.90;;;;;;4992724;28;20203;-62
2022/06/21 05:20:37;;;;;;;9.37;4.40;;;11.70;99.90;;;;;;4994332;28;20214;-64
2022/06/21 05:23:08;;;;;;;11.63;4.80;;;11.80;99.90;;;;;;4994096;28;20211;-63
2022/06/21 05:25:37;;;;;;;6.80;4.23;;;11.90;99.90;;;;;;4994047;28;20282;-63
2022/06/21 05:28:14;;;;;;;6.27;4.10;;;12.00;99.90;;;;;;4993909;28;20246;-63
2022/06/21 05:30:46;;;;;;;6.40;4.17;;;12.10;99.90;;;;;;4984516;28;20977;-62
2022/06/21 05:33:18;;;;;;;8.43;3.93;;;12.20;99.90;;;;;;4992470;28;20698;-64
2022/06/21 05:35:45;;;;;;;9.10;3.53;;;12.30;99.90;;;;;;4992652;28;20286;-63
2022/06/21 05:38:17;;;;;;;5.97;3.20;;;12.30;99.90;;;;;;4992619;28;20215;-64
2022/06/21 05:40:50;;;;;;;6.50;2.93;;;12.40;99.90;;;;;;4992611;28;20215;-65
2022/06/21 05:43:19;;;;;;;6.80;3.47;;;12.40;99.90;;;;;;4993055;28;20215;-64
2022/06/21 05:45:52;;;;;;;6.00;3.27;;;12.50;99.90;;;;;;4993101;28;20738;-64
2022/06/21 05:48:23;;;;;;;5.47;2.97;;;12.50;99.90;;;;;;4992607;28;20208;-64
2022/06/21 05:50:50;;;;;;;5.97;3.20;;;12.60;99.90;;;;;;4993010;28;20668;-63
2022/06/21 05:53:25;;;;;;;7.80;2.80;;;12.70;99.90;;;;;;4992403;28;20270;-64
2022/06/21 05:55:52;;;;;;;5.40;3.13;;;12.80;99.90;;;;;;4993045;28;20226;-64
2022/06/21 05:58:22;;;;;;;5.10;3.00;;;12.80;99.90;;;;;;4992556;28;20216;-65
2022/06/21 06:00:57;;;;;;;6.80;3.57;;;12.90;99.90;;;;;;4992690;28;20737;-63
2022/06/21 06:03:30;;;;;;;11.30;3.40;;;13.00;99.90;;;;;;4992513;28;20207;-64
2022/06/21 06:06:02;;;;;;;4.03;2.73;;;13.20;99.90;;;;;;4992217;28;20234;-63
2022/06/21 06:08:33;;;;;;;5.17;2.83;;;13.20;99.90;;;;;;4992734;28;20235;-65
2022/06/21 06:11:02;;;;;;;5.37;2.77;;;13.30;99.90;;;;;;4992265;28;20211;-65
2022/06/21 06:13:33;;;;;;;6.13;2.93;;;13.40;99.90;;;;;;4992530;28;20204;-65
2022/06/21 06:16:05;;;;;;;6.93;2.70;;;13.40;99.90;;;;;;4991735;28;20285;-63
2022/06/21 06:18:41;;;;;;;4.70;2.47;;;13.40;99.90;;;;;;4992682;28;20218;-62
2022/06/21 06:21:16;;;;;;;6.27;2.10;;;13.50;99.90;;;;;;4991975;28;20213;-61
2022/06/21 06:23:49;;;;;;;5.60;2.50;;;13.60;99.90;;;;;;4992314;28;20261;-62
2022/06/21 06:26:20;;;;;;;7.17;2.87;;;13.80;99.90;;;;;;4991892;28;20233;-63
2022/06/21 06:28:52;;;;;;;7.50;2.80;;;13.80;99.90;;;;;;4991792;28;20210;-63
2022/06/21 06:31:24;;;;;;;5.87;3.00;;;13.90;99.90;;;;;;4992097;28;20354;-63
2022/06/21 06:33:55;;;;;;;5.77;2.90;;;14.00;99.90;;;;;;4992117;28;20214;-63
2022/06/21 06:36:24;;;;;;;5.13;2.73;;;14.10;99.90;;;;;;4991685;28;20223;-64
2022/06/21 06:38:52;;;;;;;6.37;3.10;;;14.20;99.90;;;;;;4991839;28;20218;-64
2022/06/21 06:41:26;;;;;;;5.63;2.80;;;14.30;99.90;;;;;;4992009;28;20214;-61
2022/06/21 06:43:57;;;;;;;4.87;2.77;;;14.40;99.90;;;;;;4991701;28;20211;-60
2022/06/21 06:46:29;;;;;;;4.67;2.80;;;14.50;99.90;;;;;;4991324;28;20231;-61
2022/06/21 06:49:05;;;;;;;12.47;5.93;;;14.50;99.90;;;;;;4991448;28;20673;-65
2022/06/21 06:51:40;;;;;;;5.70;2.70;;;14.70;99.90;;;;;;4991757;28;20234;-65
2022/06/21 06:54:15;;;;;;;4.30;2.73;;;14.80;99.90;;;;;;4992102;28;20214;-64
2022/06/21 06:56:51;;;;;;;4.73;2.53;;;14.90;99.90;;;;;;4991130;28;20234;-64
2022/06/21 06:59:21;;;;;;;7.50;2.17;;;15.00;88.70;;;;;;4991768;28;20211;-66
2022/06/21 07:01:57;;;;;;;4.77;2.40;;;15.20;75.20;;;;;;4991524;28;20258;-66
2022/06/21 07:04:24;;;;;;;5.60;2.30;;;15.20;23.50;;;;;;4991815;28;20303;-65
2022/06/21 07:06:55;;;;;;;6.43;2.57;;;15.40;93.90;;;;;;4991014;28;20228;-64
2022/06/21 07:09:27;;;;;;;5.70;2.17;;;15.50;12.10;;;;;;4991740;28;20215;-64
2022/06/21 07:12:00;;;;;;;5.37;2.30;;;15.60;1.00;;;;;;4991517;28;20232;-64
2022/06/21 07:14:29;;;;;;;5.47;2.20;;;15.80;99.90;;;;;;4991516;28;20219;-65
2022/06/21 07:17:05;;;;;;;8.87;2.63;;;15.80;1.00;;;;;;4991389;28;20648;-65
2022/06/21 07:19:32;;;;;;;3.73;1.73;;;15.80;99.90;;;;;;4991203;28;20258;-65
2022/06/21 07:21:59;;;;;;;4.77;2.40;;;15.90;99.90;;;;;;4991379;28;20265;-63
2022/06/21 07:24:26;;;;;;;5.47;2.30;;;16.00;1.00;;;;;;4991621;28;20298;-64
2022/06/21 07:26:57;;;;;;;3.30;1.90;;;16.10;82.00;;;;;;4991292;28;20227;-65
2022/06/21 07:29:27;;;;;;;6.00;2.27;;;16.30;1.00;;;;;;4991802;28;20211;-65
2022/06/21 07:32:00;;;;;;;4.97;1.87;;;16.40;99.90;;;;;;4991382;28;20227;-64
2022/06/21 07:34:32;;;;;;;7.33;2.20;;;16.50;1.00;;;;;;4991783;28;20215;-66
2022/06/21 07:37:04;;;;;;;3.03;1.90;;;16.80;80.80;;;;;;4991001;28;20235;-64
2022/06/21 07:39:35;;;;;;;5.33;2.43;;;16.90;1.00;;;;;;4991602;28;20207;-67
2022/06/21 07:42:07;;;;;;;5.90;1.90;;;17.10;99.90;;;;;;4994014;28;20204;-64
2022/06/21 07:44:39;;;;;;;3.37;1.60;;;17.10;99.90;;;;;;4995554;28;20586;-66
2022/06/21 07:47:14;;;;;;;5.87;1.87;;;17.30;99.90;;;;;;4994301;28;20662;-64
2022/06/21 07:49:45;;;;;;;3.30;1.60;;;17.50;1.00;;;;;;4995440;28;20207;-65
2022/06/21 07:52:19;;;;;;;7.17;2.10;;;17.70;1.00;;;;;;4994972;28;20581;-66
2022/06/21 07:54:51;;;;;;;5.33;1.70;;;17.50;1.00;;;;;;4995122;28;20208;-64
2022/06/21 07:57:21;;;;;;;5.47;1.97;;;17.70;1.00;;;;;;4994789;28;20231;-63
2022/06/21 07:59:51;;;;;;;5.23;2.03;;;17.70;1.00;;;;;;4994846;28;20236;-62
2022/06/21 08:08:02;;;;;;;7.33;2.10;;;18.20;99.90;;;;;;4994723;28;20210;-63
2022/06/21 08:10:36;;;;;;;4.60;1.53;;;18.30;1.00;;;;;;4994807;28;20257;-63
2022/06/21 08:13:03;;;;;;;3.90;1.70;;;18.20;99.90;;;;;;4994678;28;20333;-65
2022/06/21 08:15:34;;;;;;;3.43;1.70;;;18.00;99.90;;;;;;4994807;28;20235;-62
2022/06/21 08:18:05;;;;;;;6.83;1.70;;;17.80;99.90;;;;;;4994615;28;20295;-63
2022/06/21 08:20:39;;;;;;;3.23;2.10;;;17.90;99.90;;;;;;4994625;28;20208;-62
2022/06/21 08:23:12;;;;;;;6.17;1.93;;;18.00;1.00;;;;;;4994467;28;20203;-65
2022/06/21 08:25:43;;;;;;;3.40;1.90;;;18.30;1.00;;;;;;4994891;28;20228;-62
2022/06/21 08:28:17;;;;;;;3.83;1.57;;;18.60;99.90;;;;;;4994073;28;20267;-61
2022/06/21 08:30:49;;;;;;;3.20;1.67;;;18.80;99.90;;;;;;4994856;28;20207;-65
2022/06/21 08:33:24;;;;;;;6.27;1.60;;;18.60;99.90;;;;;;4993986;28;20227;-62
2022/06/21 08:35:56;;;;;;;4.87;1.73;;;18.80;99.90;;;;;;4994699;28;20234;-62
2022/06/21 08:38:28;;;;;;;5.83;2.00;;;18.90;99.90;;;;;;4993980;28;20729;-62
2022/06/21 08:44:39;;;;;;;4.10;1.70;;;18.90;99.90;;;;;;4994401;28;20206;-62
2022/06/21 08:47:34;;;;;;;3.37;1.67;;;19.10;99.90;;;;;;4984381;28;20282;-62
2022/06/21 08:50:29;;;;;;;4.20;2.10;;;18.50;99.90;;;;;;4991981;28;20235;-62
2022/06/21 08:53:06;;;;;;;5.47;1.90;;;18.60;99.90;;;;;;4978931;28;20235;-62
2022/06/21 08:55:41;;;;;;;4.23;1.80;;;18.80;99.90;;;;;;4994304;28;20231;-67
2022/06/21 08:58:21;;;;;;;5.63;1.90;;;19.00;99.90;;;;;;4993683;28;20198;-66
2022/06/21 09:00:53;;;;;;;3.27;1.47;;;19.10;99.90;;;;;;4994350;28;20718;-66
2022/06/21 09:03:35;;;;;;;5.87;1.80;;;19.20;99.90;;;;;;4993529;28;20254;-67
2022/06/21 09:06:15;;;;;;;4.77;1.97;;;19.30;99.90;;;;;;4993459;28;20232;-65
2022/06/21 09:08:56;;;;;;;3.57;1.73;;;19.40;99.90;;;;;;4993713;28;20239;-65
2022/06/21 09:11:30;;;;;;;5.03;1.87;;;19.50;99.90;;;;;;4993610;28;20207;-66
2022/06/21 09:14:19;;;;;;;3.00;2.03;;;19.50;99.90;;;;;;4993507;28;20232;-65
2022/06/21 09:16:51;;;;;;;2.57;1.63;;;19.30;99.90;;;;;;4993045;28;20595;-66
2022/06/21 09:19:33;;;;;;;2.87;1.50;;;19.50;99.90;;;;;;4993510;28;20302;-66
2022/06/21 09:22:10;;;;;;;3.20;1.50;;;19.30;99.90;;;;;;4993484;28;20200;-63
2022/06/21 09:24:40;;;;;;;2.43;1.30;;;19.30;99.90;;;;;;4993486;28;20211;-64
2022/06/21 09:27:13;;;;;;;6.40;1.53;;;19.20;99.90;;;;;;4992586;28;20235;-62
2022/06/21 09:29:52;;;;;;;4.13;1.83;;;19.10;99.90;;;;;;4993652;28;20302;-62
2022/06/21 09:32:27;;;;;;;4.40;1.63;;;19.40;99.90;;;;;;4992763;28;20238;-63
2022/06/21 09:35:05;;;;;;;6.50;1.90;;;19.50;99.90;;;;;;4993676;28;20238;-67
2022/06/21 09:37:46;;;;;;;6.20;1.80;;;19.10;99.90;;;;;;4992490;28;20234;-63
2022/06/21 09:40:22;;;;;;;4.20;1.87;;;19.20;99.90;;;;;;4993596;28;20188;-64
2022/06/21 09:42:58;;;;;;;3.40;1.90;;;19.40;99.90;;;;;;4993144;28;20266;-64
2022/06/21 09:45:33;;;;;;;3.70;1.67;;;19.40;99.90;;;;;;4993193;28;20273;-66
2022/06/21 09:48:08;;;;;;;4.83;1.93;;;19.40;99.90;;;;;;4991942;28;20195;-64
2022/06/21 09:50:44;;;;;;;3.47;1.60;;;19.40;99.90;;;;;;4993334;28;20207;-65
2022/06/21 09:53:22;;;;;;;5.50;2.10;;;19.60;99.90;;;;;;4992708;28;20231;-66
2022/06/21 09:55:58;;;;;;;5.83;2.00;;;19.80;99.90;;;;;;4992302;28;20224;-64
2022/06/21 09:58:30;;;;;;;3.97;1.70;;;19.60;99.90;;;;;;4992696;28;20234;-64
2022/06/21 10:01:04;;;;;;;5.17;1.63;;;19.70;99.90;;;;;;4992027;28;20204;-64
2022/06/21 10:03:41;;;;;;;3.13;1.67;;;19.80;99.90;;;;;;4992366;28;20200;-62
2022/06/21 10:06:15;;;;;;;4.43;1.70;;;19.80;99.90;;;;;;4992149;28;20231;-64
2022/06/21 10:09:09;;;;;;;8.60;1.90;;;19.90;99.90;;;;;;4992477;28;20733;-64
2022/06/21 10:11:46;;;;;;;3.23;1.50;;;19.80;99.90;;;;;;4992177;28;20246;-61
2022/06/21 10:14:33;;;;;;;4.00;1.40;;;19.60;99.90;;;;;;4992618;28;20285;-65
2022/06/21 10:17:36;;;;;;;4.73;2.00;;;19.20;99.90;;;;;;4991869;28;20227;-64
2022/06/21 10:20:22;;;;;;;8.03;2.33;;;19.20;99.90;;;;;;4981523;28;20617;-64
2022/06/21 10:23:00;;;;;;;4.23;1.50;;;19.30;99.90;;;;;;4991805;28;20210;-63
2022/06/21 10:25:44;;;;;;;3.40;1.70;;;19.50;99.90;;;;;;4992154;28;20654;-63
2022/06/21 10:28:42;;;;;;;3.20;1.40;;;19.90;99.90;;;;;;4991819;28;20219;-65
2022/06/21 10:31:26;;;;;;;4.70;1.77;;;20.20;99.90;;;;;;4992294;28;20346;-62
2022/06/21 10:34:23;;;;;;;8.80;1.93;;;20.20;99.90;;;;;;4991637;28;20250;-62
2022/06/21 10:37:06;;;;;;;5.93;1.50;;;20.30;99.90;;;;;;4991464;28;20235;-61
2022/06/21 10:40:09;;;;;;;5.37;1.67;;;20.40;99.90;;;;;;4992093;28;20749;-64
2022/06/21 10:43:04;;;;;;;5.07;1.60;;;20.40;99.90;;;;;;4992119;28;20226;-64
2022/06/21 10:45:41;;;;;;;4.37;1.80;;;20.30;99.90;;;;;;4991863;28;20231;-64
2022/06/21 10:48:46;;;;;;;5.57;1.63;;;20.40;99.90;;;;;;4991629;28;20274;-65
2022/06/21 10:51:24;;;;;;;5.87;1.87;;;20.30;99.90;;;;;;4991824;28;20298;-65
2022/06/21 10:54:17;;;;;;;3.83;2.10;;;20.50;99.90;;;;;;4991532;28;20238;-62
2022/06/21 10:57:11;;;;;;;3.93;1.63;;;20.80;99.90;;;;;;4991122;28;20327;-61
2022/06/21 11:02:51;;;;;;;4.77;1.30;;;21.20;99.90;;;;;;4991638;28;20207;-62
2022/06/21 11:05:23;;;;;;;5.20;1.60;;;21.50;99.90;;;;;;4991615;28;20675;-66
2022/06/21 11:08:00;;;;;;;4.27;1.43;;;21.30;99.90;;;;;;4991698;28;20303;-64
2022/06/21 11:10:34;;;;;;;2.93;1.60;;;21.20;99.90;;;;;;4991221;28;20211;-64
2022/06/21 11:13:05;;;;;;;3.77;1.60;;;21.00;99.90;;;;;;4990880;28;20282;-64
2022/06/21 11:15:53;;;;;;;3.53;2.10;;;21.00;99.90;;;;;;4991718;28;20287;-62
2022/06/21 11:18:35;;;;;;;1.90;1.43;;;21.00;99.90;;;;;;4995866;28;20674;-62
2022/06/21 11:21:10;;;;;;;3.03;1.60;;;21.00;99.90;;;;;;4995285;28;20254;-62
2022/06/21 11:23:46;;;;;;;3.63;1.70;;;21.20;99.90;;;;;;4995590;28;20203;-63
2022/06/21 11:26:27;;;;;;;6.23;1.53;;;21.20;99.90;;;;;;4994986;28;20237;-62
2022/06/21 11:29:03;;;;;;;3.33;1.60;;;21.10;99.90;;;;;;4995807;28;20207;-62
2022/06/21 11:31:38;;;;;;;4.03;1.70;;;20.60;99.90;;;;;;4995100;28;20207;-62
2022/06/21 11:34:11;;;;;;;4.50;1.83;;;20.60;99.90;;;;;;4995169;28;20744;-61
2022/06/21 11:36:46;;;;;;;2.57;1.47;;;20.50;99.90;;;;;;4995230;28;20280;-64
2022/06/21 11:39:25;;;;;;;4.33;1.70;;;20.40;99.90;;;;;;4995173;28;20207;-62
2022/06/21 11:42:08;;;;;;;4.40;2.00;;;20.20;99.90;;;;;;4995073;28;20214;-60
2022/06/21 11:45:01;;;;;;;2.00;1.23;;;20.00;99.90;;;;;;4994798;28;20212;-60
2022/06/21 11:47:43;;;;;;;3.63;1.60;;;20.00;99.90;;;;;;4995037;28;20250;-61
2022/06/21 11:50:18;;;;;;;4.03;1.57;;;20.20;99.90;;;;;;4995055;28;20208;-62
2022/06/21 11:53:23;;;;;;;3.87;1.60;;;20.30;99.90;;;;;;4995166;28;20258;-63
2022/06/21 11:55:57;;;;;;;3.37;1.63;;;20.50;99.90;;;;;;4994718;28;20226;-61
2022/06/21 11:58:30;;;;;;;5.57;1.87;;;20.80;99.90;;;;;;4994903;28;20338;-63
2022/06/21 12:01:04;;;;;;;5.07;1.97;;;21.10;99.90;;;;;;4994786;28;20295;-63
2022/06/21 12:03:52;;;;;;;4.47;1.73;;;21.30;99.90;;;;;;4994910;28;20323;-63
2022/06/21 12:06:29;;;;;;;3.70;1.70;;;21.10;99.90;;;;;;4993947;28;20278;-63
2022/06/21 12:09:03;;;;;;;6.37;2.10;;;20.70;99.90;;;;;;4995019;28;20219;-63
2022/06/21 12:11:38;;;;;;;4.33;1.80;;;20.50;99.90;;;;;;4994655;28;20266;-62
2022/06/21 12:14:20;;;;;;;6.23;2.03;;;20.30;99.90;;;;;;4994820;28;20231;-62
2022/06/21 12:16:57;;;;;;;6.80;2.23;;;20.50;99.90;;;;;;4975348;28;20240;-61
2022/06/21 12:19:32;;;;;;;5.93;2.10;;;20.50;99.90;;;;;;4975391;28;20620;-61
2022/06/21 12:22:19;;;;;;;3.13;1.83;;;20.60;99.90;;;;;;4995087;28;20616;-61
2022/06/21 12:24:46;;;;;;;2.53;1.57;;;20.60;99.90;;;;;;4994915;28;20765;-61
2022/06/21 12:27:13;;;;;;;3.53;1.87;;;20.60;99.90;;;;;;4994149;28;20223;-63
2022/06/21 12:29:40;;;;;;;4.30;1.70;;;20.70;99.90;;;;;;4994568;28;20215;-64
2022/06/21 12:32:12;;;;;;;2.90;1.80;;;20.80;99.90;;;;;;4994808;28;20238;-62
2022/06/21 12:34:42;;;;;;;5.17;1.87;;;20.70;99.90;;;;;;4992974;28;20249;-64
2022/06/21 12:37:13;;;;;;;4.43;1.70;;;20.70;99.90;;;;;;4994321;28;20295;-65
2022/06/21 12:39:45;;;;;;;5.10;1.87;;;21.10;99.90;;;;;;4994511;28;20214;-67
2022/06/21 12:42:47;;;;;;;5.67;1.80;;;21.60;99.90;;;;;;4993940;28;20215;-67
2022/06/21 12:45:44;;;;;;;4.37;1.83;;;21.80;99.90;;;;;;4994293;28;20207;-66
2022/06/21 12:48:28;;;;;;;3.10;1.90;;;21.60;99.90;;;;;;4992749;28;20235;-67
2022/06/21 12:51:10;;;;;;;5.73;1.63;;;21.80;99.90;;;;;;4994479;28;20216;-69
2022/06/21 12:54:05;;;;;;;5.57;1.90;;;22.00;99.90;;;;;;4993541;28;20219;-64
2022/06/21 12:56:47;;;;;;;3.13;1.77;;;21.90;99.90;;;;;;4993803;28;20236;-61
2022/06/21 12:59:39;;;;;;;7.60;2.40;;;22.00;99.90;;;;;;4993980;28;20262;-60
2022/06/21 13:02:23;;;;;;;5.83;2.10;;;22.30;99.90;;;;;;4994122;28;20212;-62
2022/06/21 13:05:07;;;;;;;5.03;1.70;;;22.40;99.90;;;;;;4993723;28;20204;-61
2022/06/21 13:07:49;;;;;;;5.57;1.80;;;22.10;99.90;;;;;;4993536;28;20211;-63
2022/06/21 13:10:31;;;;;;;7.23;2.23;;;21.80;99.90;;;;;;4993481;28;20215;-61
2022/06/21 13:13:37;;;;;;;6.70;2.00;;;21.60;99.90;;;;;;4993661;28;20207;-61
2022/06/21 13:16:15;;;;;;;4.77;2.27;;;21.60;99.90;;;;;;4993044;28;20847;-64
2022/06/21 13:19:05;;;;;;;3.07;1.63;;;21.80;99.90;;;;;;4994118;28;20211;-64
2022/06/21 13:21:48;;;;;;;4.57;1.83;;;21.90;99.90;;;;;;4993263;28;20234;-64
2022/06/21 13:24:29;;;;;;;3.57;1.53;;;22.10;99.90;;;;;;4993455;28;20748;-66
2022/06/21 13:27:12;;;;;;;2.30;1.30;;;22.20;99.90;;;;;;4992907;28;20235;-63
2022/06/21 13:29:56;;;;;;;5.23;2.00;;;22.40;99.90;;;;;;4993096;28;20585;-64
2022/06/21 13:32:25;;;;;;;35.87;4.13;;;22.50;99.90;;;;;;4993387;28;20208;-65
2022/06/21 13:34:59;;;;;;;6.50;1.60;;;22.90;99.90;;;;;;4993062;28;20236;-63
2022/06/21 13:37:31;;;;;;;4.20;1.77;;;22.90;99.90;;;;;;4993368;28;20589;-62
2022/06/21 13:40:07;;;;;;;3.50;1.77;;;22.90;99.90;;;;;;4991931;28;20227;-62